world map with TNF marked

TNF - Airport

This information may not be accurate or current and is not valid for navigation or flight planning. No warranty of fitness for any purpose is made or implied.

flag of Īle-de-Franceflag of France

Donate via PayPal

Additional information is available on the NEW Great Circle Mapper

Location
City:  Toussus-Le-Noble, Īle-de-France, France
ICAO / IATA:LFPN / TNF

Details
Type:Airport (Aerodrome, Airfield)
Use:Public/Civil
Latitude:48°44'59"N (48.749756)
Longitude:2°06'40"E (2.111178)
Elevation:538 ft (164 m)
Runways:2
Longest:3609 × 98 ft (1100 × 30 m)

Time
Timezone:UTC+1 (DST+4)
Local Time:

Weather
METAR:LFPN  041400Z AUTO 20012KT 9999 BKN044 OVC052 03/M02 Q1024 TEMPO 1800 -SN BKN008
TAF:LFPN  (expired)

Related Locations
Nearby:
Farthest:CHT: 12082 mi / 19444 km
Waitangi [Tuuta], CIT, NZ

Find:

   beyond  
but within

Other Information
Maps:
Sources:

  


 


Great Circle Mapper   Great Circle Mapper
Great Circle Mapper FAQ   Great Circle Mapper FAQ
  Karl's Home Page
KLS²   KLS² Home
   GC on Facebook
Airlines of the World   Airlines of the World
Donate via PayPal


Copyright © 2004-2019, Karl L. Swartz. All rights reserved.
All trademarks mentioned herein belong to their respective owners.

Please see credits for attribution and copyright information.

Karl Swartz <karl@kls2.com>
  Powered by FreeBSD
Valid HTML 4.01!
Labeled with ICRA
hCard Microformat
Geo Microformat